createdAt,value
2022-11-10T00:01:15.874Z,4.70
2022-11-10T00:03:42.733Z,7.50
2022-11-10T00:06:10.178Z,6.43
2022-11-10T00:08:37.475Z,8.00
2022-11-10T00:11:06.800Z,7.35
2022-11-10T00:13:56.758Z,10.55
2022-11-10T00:16:41.985Z,10.00
2022-11-10T00:19:09.117Z,7.88
2022-11-10T00:21:37.096Z,9.65
2022-11-10T00:24:04.866Z,7.57
2022-11-10T00:26:31.783Z,9.35
2022-11-10T00:28:58.680Z,10.20
2022-11-10T00:31:28.338Z,6.35
2022-11-10T00:33:55.275Z,4.18
2022-11-10T00:36:22.044Z,5.70
2022-11-10T00:38:51.464Z,5.47
2022-11-10T00:41:18.235Z,10.20
2022-11-10T00:43:45.138Z,12.95
2022-11-10T00:46:12.017Z,8.70
2022-11-10T00:48:38.801Z,8.73
2022-11-10T00:51:05.824Z,10.07
2022-11-10T00:53:32.620Z,9.30
2022-11-10T00:55:59.440Z,7.43
2022-11-10T00:58:26.251Z,13.23
2022-11-10T01:01:02.381Z,8.80
2022-11-10T01:03:29.331Z,12.13
2022-11-10T01:05:56.194Z,10.75
2022-11-10T01:08:23.484Z,5.97
2022-11-10T01:10:50.411Z,8.02
2022-11-10T01:13:17.178Z,8.15
2022-11-10T01:15:43.938Z,8.40
2022-11-10T01:18:10.904Z,9.75
2022-11-10T01:20:37.684Z,9.15
2022-11-10T01:23:04.445Z,12.88
2022-11-10T01:25:31.232Z,6.78
2022-11-10T01:27:58.040Z,8.77
2022-11-10T01:30:24.891Z,8.50
2022-11-10T01:32:51.688Z,9.25
2022-11-10T01:35:18.458Z,11.25
2022-11-10T01:37:45.395Z,6.10
2022-11-10T01:40:12.701Z,9.40
2022-11-10T01:42:57.751Z,8.43
2022-11-10T01:45:24.478Z,4.95
2022-11-10T01:47:55.421Z,8.48
2022-11-10T01:50:27.054Z,11.60
2022-11-10T01:52:57.978Z,9.27
2022-11-10T01:55:25.844Z,6.78
2022-11-10T01:57:53.334Z,6.85
2022-11-10T02:00:21.258Z,8.05
2022-11-10T02:03:04.170Z,7.25
2022-11-10T02:05:31.538Z,7.15
2022-11-10T02:08:00.796Z,12.52
2022-11-10T02:10:27.621Z,10.68
2022-11-10T02:12:54.450Z,7.47
2022-11-10T02:15:21.394Z,10.07
2022-11-10T02:17:48.714Z,11.50
2022-11-10T02:20:19.972Z,8.75
2022-11-10T02:22:46.781Z,8.63
2022-11-10T02:25:18.973Z,4.85
2022-11-10T02:27:45.777Z,10.00
2022-11-10T02:30:15.219Z,11.07
2022-11-10T02:32:41.997Z,9.45
2022-11-10T02:35:09.018Z,10.20
2022-11-10T02:37:35.820Z,9.70
2022-11-10T02:40:02.584Z,10.35
2022-11-10T02:42:29.376Z,7.22
2022-11-10T02:44:57.104Z,9.02
2022-11-10T02:47:23.884Z,8.88
2022-11-10T02:49:50.717Z,6.35
2022-11-10T02:52:17.565Z,9.52
2022-11-10T02:54:44.357Z,11.00
2022-11-10T02:57:11.122Z,6.22
2022-11-10T02:59:37.915Z,5.93
2022-11-10T03:02:04.684Z,8.93
2022-11-10T03:04:31.445Z,9.13
2022-11-10T03:06:58.286Z,13.65
2022-11-10T03:09:25.087Z,7.07
2022-11-10T03:11:51.853Z,8.52
2022-11-10T03:14:18.785Z,6.43
2022-11-10T03:16:45.527Z,11.63
2022-11-10T03:19:12.334Z,14.00
2022-11-10T03:21:39.128Z,8.57
2022-11-10T03:24:06.063Z,11.18
2022-11-10T03:26:32.830Z,9.25
2022-11-10T03:28:59.637Z,8.45
2022-11-10T03:31:26.420Z,8.57
2022-11-10T03:33:53.241Z,11.95
2022-11-10T03:36:19.992Z,10.63
2022-11-10T03:38:46.816Z,6.85
2022-11-10T03:41:21.172Z,10.30
2022-11-10T03:43:49.289Z,8.55
2022-11-10T03:46:16.937Z,11.77
2022-11-10T03:48:47.394Z,5.60
2022-11-10T03:51:17.597Z,12.77
2022-11-10T03:53:44.404Z,10.55
2022-11-10T03:56:12.162Z,10.80
2022-11-10T03:58:38.951Z,11.10
2022-11-10T04:01:05.754Z,9.82
2022-11-10T04:03:32.514Z,14.38
2022-11-10T04:06:17.659Z,8.93
2022-11-10T04:08:59.495Z,9.90
2022-11-10T04:11:49.959Z,10.68
2022-11-10T04:14:35.670Z,9.60
2022-11-10T04:17:03.251Z,8.27
2022-11-10T04:19:30.289Z,9.52
2022-11-10T04:21:57.545Z,8.85
2022-11-10T04:24:24.434Z,9.52
2022-11-10T04:26:51.445Z,7.10
2022-11-10T04:29:19.838Z,8.52
2022-11-10T04:31:46.713Z,10.10
2022-11-10T04:34:15.382Z,10.80
2022-11-10T04:36:43.891Z,13.77
2022-11-10T04:39:11.273Z,11.07
2022-11-10T04:41:38.755Z,11.75
2022-11-10T04:44:06.029Z,14.05
2022-11-10T04:46:39.611Z,9.80
2022-11-10T04:49:07.378Z,7.47
2022-11-10T04:51:38.024Z,11.70
2022-11-10T04:54:06.979Z,8.93
2022-11-10T04:56:34.764Z,10.20
2022-11-10T04:59:02.222Z,13.68
2022-11-10T05:01:29.502Z,15.70
2022-11-10T05:03:56.425Z,12.80
2022-11-10T05:06:23.805Z,8.52
2022-11-10T05:08:51.359Z,19.48
2022-11-10T05:11:18.373Z,10.45
2022-11-10T05:13:45.728Z,8.95
2022-11-10T05:16:13.484Z,11.88
2022-11-10T05:18:41.304Z,8.68
2022-11-10T05:21:08.151Z,12.00
2022-11-10T05:23:41.847Z,11.73
2022-11-10T05:26:17.496Z,9.60
2022-11-10T05:28:45.961Z,11.05
2022-11-10T05:31:13.678Z,12.07
2022-11-10T05:33:40.690Z,11.88
2022-11-10T05:36:08.459Z,16.38
2022-11-10T05:38:40.260Z,12.65
2022-11-10T05:41:09.997Z,8.73
2022-11-10T05:43:37.025Z,14.82
2022-11-10T05:46:03.910Z,9.20
2022-11-10T05:48:30.713Z,10.02
2022-11-10T05:50:57.491Z,8.63
2022-11-10T05:53:24.521Z,14.30
2022-11-10T05:55:51.653Z,8.55
2022-11-10T05:58:18.502Z,9.82
2022-11-10T06:00:45.288Z,11.55
2022-11-10T06:03:18.360Z,11.02
2022-11-10T06:05:45.859Z,10.60
2022-11-10T06:08:13.003Z,11.95
2022-11-10T06:10:40.340Z,9.70
2022-11-10T06:13:07.246Z,16.75
2022-11-10T06:15:34.382Z,10.10
2022-11-10T06:18:01.342Z,10.20
2022-11-10T06:20:28.730Z,10.43
2022-11-10T06:23:12.845Z,10.80
2022-11-10T06:25:41.527Z,12.68
2022-11-10T06:28:09.839Z,13.35
2022-11-10T06:30:38.200Z,11.63
2022-11-10T06:33:05.211Z,14.15
2022-11-10T06:35:32.008Z,14.30
2022-11-10T06:38:05.260Z,9.43
2022-11-10T06:40:33.216Z,10.25
2022-11-10T06:43:01.617Z,13.45
2022-11-10T06:45:29.275Z,12.55
2022-11-10T06:48:09.244Z,11.73
2022-11-10T06:50:36.377Z,15.57
2022-11-10T06:53:03.490Z,10.60
2022-11-10T06:55:31.010Z,10.48
2022-11-10T06:57:58.086Z,13.40
2022-11-10T07:00:26.630Z,12.10
2022-11-10T07:03:08.324Z,11.05
2022-11-10T07:05:36.856Z,16.13
2022-11-10T07:08:13.533Z,14.32
2022-11-10T07:10:40.306Z,12.52
2022-11-10T07:13:07.163Z,19.48
2022-11-10T07:15:34.398Z,14.73
2022-11-10T07:18:05.180Z,14.02
2022-11-10T07:20:32.569Z,17.33
2022-11-10T07:23:01.762Z,17.00
2022-11-10T07:25:30.495Z,14.43
2022-11-10T07:27:59.451Z,20.35
2022-11-10T07:30:28.007Z,15.63
2022-11-10T07:33:14.973Z,15.23
2022-11-10T07:35:42.089Z,12.20
2022-11-10T07:38:12.235Z,19.70
2022-11-10T07:40:39.198Z,18.83
2022-11-10T07:43:06.319Z,17.35
2022-11-10T07:45:33.592Z,16.75
2022-11-10T07:48:06.351Z,20.33
2022-11-10T07:50:34.415Z,16.25
2022-11-10T07:53:17.112Z,12.25
2022-11-10T07:55:45.315Z,17.48
2022-11-10T07:58:15.025Z,14.65
2022-11-10T08:00:42.949Z,14.43
2022-11-10T08:03:19.796Z,15.73
2022-11-10T08:05:46.754Z,16.65
2022-11-10T08:08:14.351Z,17.23
2022-11-10T08:10:41.745Z,16.70
2022-11-10T08:13:11.177Z,13.90
2022-11-10T08:15:39.315Z,14.48
2022-11-10T08:18:21.496Z,18.98
2022-11-10T08:20:48.815Z,17.42
2022-11-10T08:23:16.381Z,15.50
2022-11-10T08:25:43.832Z,10.60
2022-11-10T08:28:17.269Z,14.70
2022-11-10T08:30:46.328Z,17.77
2022-11-10T08:33:16.152Z,11.27
2022-11-10T08:35:49.065Z,16.85
2022-11-10T08:38:20.044Z,17.70
2022-11-10T08:40:47.504Z,13.35
2022-11-10T08:43:16.740Z,16.83
2022-11-10T08:45:44.747Z,12.18
2022-11-10T08:48:19.562Z,12.82
2022-11-10T08:50:47.815Z,16.55
2022-11-10T08:53:21.055Z,11.35
2022-11-10T08:55:48.344Z,18.57
2022-11-10T08:58:18.425Z,16.48
2022-11-10T09:00:45.365Z,13.82
2022-11-10T09:03:17.227Z,14.85
2022-11-10T09:05:45.276Z,14.88
2022-11-10T09:08:12.312Z,13.93
2022-11-10T09:10:47.232Z,17.45
2022-11-10T09:13:16.010Z,13.70
2022-11-10T09:15:43.663Z,17.95
2022-11-10T09:18:13.543Z,18.90
2022-11-10T09:20:41.289Z,16.02
2022-11-10T09:23:17.396Z,16.05
2022-11-10T09:25:50.952Z,18.00
2022-11-10T09:28:19.192Z,19.97
2022-11-10T09:30:50.753Z,16.67
2022-11-10T09:33:17.818Z,13.95
2022-11-10T09:35:45.121Z,13.88
2022-11-10T09:38:12.082Z,12.40
2022-11-10T09:41:02.745Z,17.30
2022-11-10T09:43:40.742Z,13.25
2022-11-10T09:46:29.353Z,10.98
2022-11-10T09:49:23.942Z,12.48
2022-11-10T09:51:53.305Z,19.33
2022-11-10T09:54:58.780Z,15.15
2022-11-10T09:59:54.169Z,12.27
2022-11-10T10:02:31.513Z,21.88
2022-11-10T10:05:30.181Z,13.68
2022-11-10T10:08:09.970Z,13.77
2022-11-10T10:10:49.287Z,12.30
2022-11-10T10:13:53.752Z,14.63
2022-11-10T10:16:57.052Z,15.20
2022-11-10T10:19:51.050Z,11.20
2022-11-10T10:23:18.384Z,10.93
2022-11-10T10:25:46.782Z,15.55
2022-11-10T10:28:21.253Z,11.73
2022-11-10T10:30:48.413Z,14.60
2022-11-10T10:33:21.386Z,12.82
2022-11-10T10:35:50.550Z,11.32
2022-11-10T10:38:36.210Z,13.25
2022-11-10T10:41:19.638Z,11.43
2022-11-10T10:43:53.343Z,14.43
2022-11-10T10:46:24.830Z,9.95
2022-11-10T10:49:31.146Z,12.50
2022-11-10T10:52:17.096Z,11.00
2022-11-10T10:54:43.945Z,19.48
2022-11-10T10:57:29.977Z,8.93
2022-11-10T11:00:20.851Z,14.00
2022-11-10T11:03:05.706Z,9.15
2022-11-10T11:05:32.920Z,12.48
2022-11-10T11:08:02.481Z,14.23
2022-11-10T11:10:35.397Z,15.60
2022-11-10T11:13:25.765Z,11.75
2022-11-10T11:16:01.906Z,11.00
2022-11-10T11:18:31.512Z,7.05
2022-11-10T11:21:26.182Z,11.35
2022-11-10T11:24:13.649Z,6.45
2022-11-10T11:27:05.063Z,12.95
2022-11-10T11:29:54.767Z,12.52
2022-11-10T11:32:40.937Z,10.27
2022-11-10T11:35:44.973Z,14.13
2022-11-10T11:38:55.663Z,12.90
2022-11-10T11:41:30.323Z,10.35
2022-11-10T11:44:27.989Z,13.45
2022-11-10T11:47:29.463Z,10.85
2022-11-10T11:50:30.772Z,9.02
2022-11-10T11:53:28.224Z,17.35
2022-11-10T11:56:09.831Z,10.77
2022-11-10T11:58:45.823Z,11.95
2022-11-10T12:01:21.469Z,9.57
2022-11-10T12:04:22.973Z,9.55
2022-11-10T12:07:10.748Z,12.10
2022-11-10T12:09:50.265Z,12.52
2022-11-10T12:12:58.086Z,8.73
2022-11-10T12:15:48.117Z,13.60
2022-11-10T12:18:38.122Z,10.63
2022-11-10T12:21:35.717Z,8.23
2022-11-10T12:24:46.759Z,6.75
2022-11-10T12:27:34.296Z,9.50
2022-11-10T12:30:14.274Z,7.15
2022-11-10T12:33:04.438Z,9.60
2022-11-10T12:35:44.096Z,7.60
2022-11-10T12:38:31.017Z,12.00
2022-11-10T12:41:13.464Z,10.27
2022-11-10T12:44:21.093Z,7.47
2022-11-10T12:46:55.543Z,8.20
2022-11-10T12:52:14.604Z,8.95
2022-11-10T12:54:45.623Z,11.57
2022-11-10T12:57:18.623Z,9.30
2022-11-10T13:00:07.158Z,15.45
2022-11-10T13:02:40.405Z,17.85
2022-11-10T13:05:15.414Z,12.23
2022-11-10T13:07:48.562Z,11.57
2022-11-10T13:10:18.320Z,11.68
2022-11-10T13:13:03.682Z,12.13
2022-11-10T13:15:39.368Z,7.60
2022-11-10T13:18:09.400Z,8.55
2022-11-10T13:20:39.043Z,10.20
2022-11-10T13:23:31.818Z,7.55
2022-11-10T13:26:09.885Z,11.25
2022-11-10T13:28:48.798Z,8.30
2022-11-10T13:31:27.738Z,10.73
2022-11-10T13:34:12.398Z,10.10
2022-11-10T13:36:45.202Z,9.50
2022-11-10T13:39:23.763Z,9.73
2022-11-10T13:42:00.688Z,6.85
2022-11-10T13:44:47.511Z,11.50
2022-11-10T13:47:54.369Z,14.00
2022-11-10T13:50:39.501Z,7.50
2022-11-10T13:53:33.364Z,11.32
2022-11-10T13:56:18.972Z,7.97
2022-11-10T13:58:46.327Z,9.55
2022-11-10T14:01:19.069Z,8.98
2022-11-10T14:03:45.884Z,7.35
2022-11-10T14:06:23.153Z,9.32
2022-11-10T14:09:10.091Z,6.50
2022-11-10T14:11:48.583Z,10.70
2022-11-10T14:15:01.012Z,8.00
2022-11-10T14:17:46.768Z,5.40
2022-11-10T14:20:45.002Z,9.48
2022-11-10T14:23:26.300Z,8.07
2022-11-10T14:26:02.485Z,11.20
2022-11-10T14:28:33.834Z,8.30
2022-11-10T14:31:00.875Z,17.77
2022-11-10T14:33:28.335Z,11.02
2022-11-10T14:36:08.760Z,13.98
2022-11-10T14:38:43.673Z,13.25
2022-11-10T14:41:19.332Z,9.48
2022-11-10T14:44:01.383Z,11.20
2022-11-10T14:46:28.275Z,10.27
2022-11-10T14:48:59.697Z,8.77
2022-11-10T14:51:28.793Z,11.85
2022-11-10T14:53:57.109Z,11.27
2022-11-10T14:56:32.367Z,10.65
2022-11-10T14:59:03.206Z,8.20
2022-11-10T15:01:38.241Z,11.57
2022-11-10T15:04:12.001Z,8.88
2022-11-10T15:06:41.943Z,9.98
2022-11-10T15:09:25.225Z,6.88
2022-11-10T15:12:26.409Z,8.45
2022-11-10T15:15:00.855Z,11.75
2022-11-10T15:20:32.190Z,11.80
2022-11-10T15:23:01.781Z,9.82
2022-11-10T15:25:36.244Z,7.72
2022-11-10T15:30:32.993Z,11.43
2022-11-10T15:33:02.500Z,18.75
2022-11-10T15:35:31.649Z,6.93
2022-11-10T15:38:18.091Z,9.23
2022-11-10T15:40:50.346Z,8.85
2022-11-10T15:43:20.280Z,8.73
2022-11-10T15:45:52.729Z,9.20
2022-11-10T15:48:19.940Z,10.88
2022-11-10T15:50:51.242Z,19.88
2022-11-10T15:53:30.829Z,6.50
2022-11-10T15:55:57.641Z,9.10
2022-11-10T15:58:25.047Z,6.70
2022-11-10T16:00:52.159Z,13.63
2022-11-10T16:03:21.856Z,8.25
2022-11-10T16:05:48.840Z,8.73
2022-11-10T16:08:21.953Z,8.35
2022-11-10T16:10:56.241Z,11.75
2022-11-10T16:13:30.028Z,7.10
2022-11-10T16:16:01.302Z,9.38
2022-11-10T16:18:30.945Z,10.43
2022-11-10T16:20:57.920Z,5.93
2022-11-10T16:23:26.198Z,6.38
2022-11-10T16:25:55.217Z,7.60
2022-11-10T16:28:26.140Z,8.85
2022-11-10T16:30:54.287Z,12.18
2022-11-10T16:33:23.800Z,7.97
2022-11-10T16:35:52.449Z,9.07
2022-11-10T16:38:25.424Z,11.90
2022-11-10T16:41:01.655Z,9.02
2022-11-10T16:43:31.154Z,4.07
2022-11-10T16:46:02.140Z,10.48
2022-11-10T16:48:34.266Z,8.48
2022-11-10T16:51:01.697Z,4.55
2022-11-10T16:53:31.467Z,13.15
2022-11-10T16:55:59.774Z,8.23
2022-11-10T16:58:28.052Z,8.68
2022-11-10T17:01:00.572Z,11.68
2022-11-10T17:03:33.300Z,14.00
2022-11-10T17:06:00.442Z,12.45
2022-11-10T17:08:30.483Z,11.23
2022-11-10T17:10:57.295Z,11.60
2022-11-10T17:13:25.353Z,13.02
2022-11-10T17:16:05.794Z,10.35
2022-11-10T17:18:33.967Z,11.95
2022-11-10T17:21:02.863Z,11.02
2022-11-10T17:23:29.811Z,17.25
2022-11-10T17:25:56.753Z,11.20
2022-11-10T17:28:23.553Z,6.75
2022-11-10T17:30:52.403Z,11.70
2022-11-10T17:33:19.570Z,14.45
2022-11-10T17:35:49.579Z,7.47
2022-11-10T17:38:30.881Z,9.50
2022-11-10T17:40:58.089Z,9.75
2022-11-10T17:43:25.466Z,7.18
2022-11-10T17:45:52.552Z,7.60
2022-11-10T17:48:19.425Z,11.93
2022-11-10T17:50:46.944Z,7.30
2022-11-10T17:53:26.625Z,10.48
2022-11-10T17:55:54.134Z,10.52
2022-11-10T17:58:21.337Z,11.73
2022-11-10T18:00:48.657Z,10.55
2022-11-10T18:03:21.737Z,12.38
2022-11-10T18:05:49.240Z,6.32
2022-11-10T18:08:17.469Z,9.77
2022-11-10T18:10:49.120Z,8.93
2022-11-10T18:13:17.109Z,11.95
2022-11-10T18:15:45.802Z,7.70
2022-11-10T18:18:17.907Z,9.93
2022-11-10T18:20:45.311Z,9.40
2022-11-10T18:23:12.649Z,5.03
2022-11-10T18:25:41.001Z,9.85
2022-11-10T18:28:08.773Z,6.28
2022-11-10T18:30:35.702Z,10.10
2022-11-10T18:33:04.298Z,8.07
2022-11-10T18:35:31.446Z,7.90
2022-11-10T18:37:58.602Z,6.95
2022-11-10T18:40:25.557Z,6.85
2022-11-10T18:42:59.105Z,8.25
2022-11-10T18:45:27.754Z,7.22
2022-11-10T18:48:00.388Z,7.88
2022-11-10T18:50:27.236Z,8.73
2022-11-10T18:52:54.000Z,9.25
2022-11-10T18:55:20.785Z,9.93
2022-11-10T18:57:47.556Z,13.48
2022-11-10T19:00:14.801Z,9.48
2022-11-10T19:02:42.547Z,8.55
2022-11-10T19:05:09.470Z,9.00
2022-11-10T19:07:36.242Z,7.80
2022-11-10T19:10:03.516Z,9.70
2022-11-10T19:12:31.757Z,10.30
2022-11-10T19:14:58.553Z,10.40
2022-11-10T19:17:25.373Z,15.45
2022-11-10T19:19:56.163Z,10.43
2022-11-10T19:22:23.609Z,9.07
2022-11-10T19:27:37.212Z,8.50
2022-11-10T19:30:04.955Z,14.40
2022-11-10T19:32:31.756Z,10.85
2022-11-10T19:34:59.007Z,9.85
2022-11-10T19:37:28.566Z,8.63
2022-11-10T19:39:57.628Z,13.93
2022-11-10T19:42:24.432Z,7.82
2022-11-10T19:44:51.176Z,13.40
2022-11-10T19:47:17.966Z,7.20
2022-11-10T19:49:44.725Z,7.70
2022-11-10T19:52:11.514Z,9.43
2022-11-10T19:54:38.311Z,10.20
2022-11-10T19:57:06.324Z,9.40
2022-11-10T19:59:33.322Z,22.05
2022-11-10T20:02:00.242Z,25.42
2022-11-10T20:04:27.220Z,22.63
2022-11-10T20:07:14.709Z,15.38
2022-11-10T20:09:41.530Z,13.30
2022-11-10T20:12:08.592Z,11.73
2022-11-10T20:14:35.358Z,12.32
2022-11-10T20:17:02.111Z,8.05
2022-11-10T20:19:28.905Z,10.25
2022-11-10T20:21:55.667Z,13.52
2022-11-10T20:24:22.422Z,18.85
2022-11-10T20:26:50.070Z,26.23
2022-11-10T20:29:16.837Z,20.38
2022-11-10T20:31:43.621Z,22.08
2022-11-10T20:34:10.424Z,18.90
2022-11-10T20:36:37.209Z,14.23
2022-11-10T20:39:04.186Z,15.75
2022-11-10T20:41:32.815Z,13.25
2022-11-10T20:43:59.693Z,12.57
2022-11-10T20:46:53.530Z,11.93
2022-11-10T20:49:13.272Z,10.35
2022-11-10T20:51:41.028Z,5.60
2022-11-10T20:54:08.581Z,7.43
2022-11-10T20:56:35.368Z,8.18
2022-11-10T20:59:02.195Z,11.75
2022-11-10T21:01:29.041Z,9.05
2022-11-10T21:03:55.854Z,8.02
2022-11-10T21:06:22.615Z,6.05
2022-11-10T21:08:49.406Z,6.50
2022-11-10T21:11:36.305Z,8.27
2022-11-10T21:14:03.126Z,9.27
2022-11-10T21:16:29.927Z,5.35
2022-11-10T21:18:56.921Z,9.55
2022-11-10T21:21:33.824Z,8.77
2022-11-10T21:24:07.250Z,6.80
2022-11-10T21:26:35.670Z,10.65
2022-11-10T21:29:04.385Z,7.50
2022-11-10T21:31:31.323Z,6.80
2022-11-10T21:33:58.931Z,6.05
2022-11-10T21:36:29.994Z,11.20
2022-11-10T21:38:58.430Z,5.30
2022-11-10T21:41:26.205Z,4.45
2022-11-10T21:43:53.040Z,5.20
2022-11-10T21:46:20.810Z,4.28
2022-11-10T21:48:49.203Z,8.98
2022-11-10T21:51:16.249Z,9.30
2022-11-10T21:53:43.139Z,4.35
2022-11-10T21:56:11.377Z,9.95
2022-11-10T21:58:38.582Z,7.47
2022-11-10T22:01:11.827Z,5.47
2022-11-10T22:03:39.204Z,3.63
2022-11-10T22:06:08.912Z,6.75
2022-11-10T22:08:37.471Z,4.70
2022-11-10T22:11:23.905Z,4.70
2022-11-10T22:14:09.518Z,5.75
2022-11-10T22:17:07.462Z,3.60
2022-11-10T22:19:36.138Z,7.20
2022-11-10T22:22:04.154Z,4.45
2022-11-10T22:24:31.622Z,7.95
2022-11-10T22:27:01.172Z,5.75
2022-11-10T22:29:31.944Z,3.38
2022-11-10T22:32:00.814Z,6.22
2022-11-10T22:34:27.909Z,5.88
2022-11-10T22:36:54.903Z,4.05
2022-11-10T22:39:21.762Z,5.28
2022-11-10T22:42:07.560Z,5.30
2022-11-10T22:44:34.420Z,5.00
2022-11-10T22:47:01.268Z,5.15
2022-11-10T22:49:28.079Z,5.63
2022-11-10T22:51:55.402Z,6.07
2022-11-10T22:54:23.998Z,5.13
2022-11-10T22:56:51.518Z,4.55
2022-11-10T22:59:19.341Z,4.35
2022-11-10T23:01:46.725Z,5.38
2022-11-10T23:04:15.770Z,5.28
2022-11-10T23:06:43.000Z,2.78
2022-11-10T23:09:09.875Z,6.10
2022-11-10T23:11:36.740Z,5.00
2022-11-10T23:14:03.581Z,4.10
2022-11-10T23:16:34.213Z,4.38
2022-11-10T23:19:01.693Z,2.92
2022-11-10T23:21:30.402Z,5.93
2022-11-10T23:23:57.604Z,4.47
2022-11-10T23:26:29.930Z,5.05
2022-11-10T23:28:56.939Z,5.90
2022-11-10T23:31:26.601Z,9.43
2022-11-10T23:33:55.593Z,3.08
2022-11-10T23:36:25.349Z,4.88
2022-11-10T23:38:52.455Z,7.53
2022-11-10T23:41:23.416Z,7.05
2022-11-10T23:43:50.354Z,5.95
2022-11-10T23:46:17.459Z,3.42
2022-11-10T23:48:44.232Z,8.30
2022-11-10T23:51:13.737Z,5.05
2022-11-10T23:53:41.095Z,6.57
2022-11-10T23:56:12.458Z,5.13
2022-11-10T23:58:39.730Z,5.07
